Airfield :
LOGIN :

Register | Disclaimer

   EN    FR    IT 

 










Legend :    VFR   Marginal VFR   IFR   Intensive IFR   Very Intensive IFR
Visi :
Ceiling :
>= 8 km
>= 3000ft
5 to 8 km
1000 to 3000 ft
1500m to 5 km
500 to 1000 ft
800 to 1500m
200 to 500 ft
< 800m
< 200 ft
Symbols :   Thunderstorms  Fog  Heavy snow  Heavy precipitations  Wind > 20 kt
SIGMETs :     Misc.  Thunderstorms  Icing  Turbulence  Mountain Waves  Volcanic Ashes







- Airport Elevation : 681 ft
- IATA code : LBA
- Download approach charts


EGNM - Leeds Bradford

CURRENT METAR :
  • 241320Z 14009KT 9999 FEW030 17/12 Q1019

EXPIRED METARs :
  • 241250Z 15008KT 120V180 9999 FEW020 17/12 Q1019
  • 241220Z 15008KT 110V190 9999 FEW015 16/13 Q1019
  • 241150Z 14011KT 9999 FEW015 16/12 Q1019
  • 241120Z 13011KT 8000 FEW015 15/12 Q1019
  • 241050Z 13009KT 100V170 6000 FEW012 15/12 Q1019

TAF TAF EGNM
Valid from the 24 at 12:00 until the 25 at 12:00 UTC


241101Z 2412/2512 15010KT 9999 FEW012
PROB30
TEMPO 2412/2415 7000 BKN012
BECMG 2420/2423 09005KT 6000 -RA BKN006
TEMPO 2421/2512 4000 RADZ BKN004
PROB40
TEMPO 2422/2512 0200 FG VV///
ATIS : +44 113 250 9696 (x2489)
No reported NOTAMs for that airfield.



MET'MAP, your aeronautical weather chart ! - Copyright ORBIFLY December 2007 - Disclaimer

ORBIFLY MET'MAP TEAM :

Programming & Development : Alexandra Zaïnal
Concept & Development : Baudouin d'Aumeries
Co-Development & Prog : Marc-Olivier Méhu
Technical & hardware support : Manuel Goepfert

Contact : metmap@orbifly.com




SOURCES & CREDITS :

   NOAA